createdAt,value
2019-05-11T00:00:28.474Z,0.00
2019-05-11T00:01:28.442Z,0.00
2019-05-11T00:02:28.439Z,0.00
2019-05-11T00:03:28.439Z,0.00
2019-05-11T00:04:28.448Z,0.00
2019-05-11T00:05:28.398Z,0.00
2019-05-11T00:06:28.394Z,0.00
2019-05-11T00:07:28.383Z,0.00
2019-05-11T00:08:28.378Z,0.00
2019-05-11T00:09:28.387Z,0.00
2019-05-11T00:10:28.349Z,0.00
2019-05-11T00:11:28.341Z,0.00
2019-05-11T00:12:28.379Z,0.00
2019-05-11T00:13:28.309Z,0.00
2019-05-11T00:14:28.303Z,0.00
2019-05-11T00:15:28.302Z,0.00
2019-05-11T00:16:28.279Z,0.00
2019-05-11T00:17:28.269Z,0.00
2019-05-11T00:18:28.261Z,0.00
2019-05-11T00:19:28.243Z,0.00
2019-05-11T00:20:28.252Z,0.00
2019-05-11T00:21:28.229Z,0.00
2019-05-11T00:22:28.220Z,0.00
2019-05-11T00:23:28.207Z,0.00
2019-05-11T00:24:29.550Z,0.00
2019-05-11T00:25:28.191Z,0.00
2019-05-11T00:26:28.176Z,0.00
2019-05-11T00:27:28.159Z,0.00
2019-05-11T00:28:28.156Z,0.00
2019-05-11T00:29:28.178Z,0.00
2019-05-11T00:30:28.149Z,0.00
2019-05-11T00:31:28.123Z,0.00
2019-05-11T00:32:28.105Z,0.00
2019-05-11T00:33:28.095Z,0.00
2019-05-11T00:34:28.091Z,0.00
2019-05-11T00:35:28.093Z,0.00
2019-05-11T00:36:28.117Z,0.00
2019-05-11T00:37:28.053Z,0.00
2019-05-11T00:38:28.040Z,0.00
2019-05-11T00:39:28.033Z,0.00
2019-05-11T00:40:28.073Z,0.00
2019-05-11T00:41:28.018Z,0.00
2019-05-11T00:42:28.011Z,0.00
2019-05-11T00:43:27.996Z,0.00
2019-05-11T00:44:27.976Z,0.00
2019-05-11T00:45:27.969Z,0.00
2019-05-11T00:46:27.978Z,0.00
2019-05-11T00:47:27.951Z,0.00
2019-05-11T00:48:27.949Z,0.00
2019-05-11T00:49:27.934Z,0.00
2019-05-11T00:50:38.630Z,0.00
2019-05-11T00:51:28.905Z,0.00
2019-05-11T00:52:27.898Z,0.00
2019-05-11T00:53:27.888Z,0.00
2019-05-11T00:54:27.877Z,0.00
2019-05-11T00:55:27.864Z,0.00
2019-05-11T00:56:27.867Z,0.00
2019-05-11T00:57:27.849Z,0.00
2019-05-11T00:58:27.837Z,0.00
2019-05-11T00:59:27.823Z,0.00
2019-05-11T01:00:27.817Z,0.00
2019-05-11T01:01:27.822Z,0.00
2019-05-11T01:02:27.787Z,0.00
2019-05-11T01:03:27.778Z,0.00
2019-05-11T01:04:27.799Z,0.00
2019-05-11T01:05:27.779Z,0.00
2019-05-11T01:06:27.743Z,0.00
2019-05-11T01:07:27.748Z,0.00
2019-05-11T01:08:27.726Z,0.00
2019-05-11T01:09:27.730Z,0.00
2019-05-11T01:10:41.187Z,0.00
2019-05-11T01:11:28.696Z,0.00
2019-05-11T01:12:27.695Z,0.00
2019-05-11T01:13:27.695Z,0.00
2019-05-11T01:14:27.699Z,0.00
2019-05-11T01:15:27.649Z,0.00
2019-05-11T01:16:27.646Z,0.00
2019-05-11T01:17:27.663Z,0.00
2019-05-11T01:18:27.621Z,0.00
2019-05-11T01:19:27.614Z,0.00
2019-05-11T01:20:27.592Z,0.00
2019-05-11T01:21:27.584Z,0.00
2019-05-11T01:22:27.578Z,0.00
2019-05-11T01:23:27.579Z,0.00
2019-05-11T01:24:27.558Z,0.00
2019-05-11T01:25:27.538Z,0.00
2019-05-11T01:26:27.532Z,0.00
2019-05-11T01:27:27.535Z,0.00
2019-05-11T01:28:27.531Z,0.00
2019-05-11T01:29:27.504Z,0.00
2019-05-11T01:30:27.500Z,0.00
2019-05-11T01:31:27.485Z,0.00
2019-05-11T01:32:27.472Z,0.00
2019-05-11T01:33:27.496Z,0.00
2019-05-11T01:34:27.449Z,0.00
2019-05-11T01:35:27.435Z,0.00
2019-05-11T01:36:27.434Z,0.00
2019-05-11T01:37:27.429Z,0.00
2019-05-11T01:38:27.402Z,0.00
2019-05-11T01:39:27.404Z,0.00
2019-05-11T01:40:27.390Z,0.00
2019-05-11T01:41:27.379Z,0.00
2019-05-11T01:42:27.377Z,0.00
2019-05-11T01:43:27.366Z,0.00
2019-05-11T01:44:27.349Z,0.00
2019-05-11T01:45:27.332Z,0.00
2019-05-11T01:46:27.318Z,0.00
2019-05-11T01:47:27.304Z,0.00
2019-05-11T01:48:27.305Z,0.00
2019-05-11T01:49:27.313Z,0.00
2019-05-11T01:50:27.280Z,0.00
2019-05-11T01:51:27.272Z,0.00
2019-05-11T01:52:27.254Z,0.00
2019-05-11T01:53:27.244Z,0.00
2019-05-11T01:54:27.239Z,0.00
2019-05-11T01:55:27.254Z,0.00
2019-05-11T01:56:27.213Z,0.00
2019-05-11T01:57:27.202Z,0.00
2019-05-11T01:58:27.189Z,0.00
2019-05-11T01:59:27.179Z,0.00
2019-05-11T02:00:27.195Z,0.00
2019-05-11T02:01:27.161Z,0.00
2019-05-11T02:02:27.156Z,0.00
2019-05-11T02:03:27.157Z,0.00
2019-05-11T02:04:27.128Z,0.00
2019-05-11T02:05:27.116Z,0.00
2019-05-11T02:06:27.123Z,0.00
2019-05-11T02:07:27.094Z,0.00
2019-05-11T02:08:27.088Z,0.00
2019-05-11T02:09:27.090Z,0.00
2019-05-11T02:10:27.061Z,0.00
2019-05-11T02:11:27.062Z,0.00
2019-05-11T02:12:27.047Z,0.00
2019-05-11T02:13:27.034Z,0.00
2019-05-11T02:14:27.033Z,0.00
2019-05-11T02:15:27.016Z,0.00
2019-05-11T02:16:27.020Z,0.00
2019-05-11T02:17:26.982Z,0.00
2019-05-11T02:18:26.974Z,0.00
2019-05-11T02:19:26.970Z,0.00
2019-05-11T02:20:26.976Z,0.00
2019-05-11T02:21:26.956Z,0.00
2019-05-11T02:22:26.935Z,0.00
2019-05-11T02:23:26.924Z,0.00
2019-05-11T02:24:26.907Z,0.00
2019-05-11T02:25:26.899Z,0.00
2019-05-11T02:26:26.912Z,0.00
2019-05-11T02:27:26.880Z,0.00
2019-05-11T02:28:26.865Z,0.00
2019-05-11T02:29:26.852Z,0.00
2019-05-11T02:30:26.860Z,0.00
2019-05-11T02:31:26.831Z,0.00
2019-05-11T02:32:26.846Z,0.00
2019-05-11T02:33:26.824Z,0.00
2019-05-11T02:34:26.806Z,0.00
2019-05-11T02:35:26.811Z,0.00
2019-05-11T02:36:26.778Z,0.00
2019-05-11T02:37:26.783Z,0.00
2019-05-11T02:38:26.771Z,4.00
2019-05-11T02:39:26.747Z,4.00
2019-05-11T02:40:26.739Z,4.00
2019-05-11T02:41:36.337Z,4.00
2019-05-11T02:42:27.729Z,4.00
2019-05-11T02:43:26.699Z,4.00
2019-05-11T02:44:26.699Z,4.00
2019-05-11T02:45:26.682Z,4.00
2019-05-11T02:46:26.696Z,4.00
2019-05-11T02:47:26.678Z,8.00
2019-05-11T02:48:26.651Z,8.00
2019-05-11T02:49:28.177Z,8.00
2019-05-11T02:50:26.631Z,8.00
2019-05-11T02:51:26.624Z,12.00
2019-05-11T02:52:26.627Z,16.00
2019-05-11T02:53:26.599Z,12.00
2019-05-11T02:54:26.592Z,16.00
2019-05-11T02:55:26.589Z,16.00
2019-05-11T02:56:26.561Z,24.00
2019-05-11T02:57:26.559Z,28.00
2019-05-11T02:58:26.540Z,28.00
2019-05-11T02:59:29.863Z,32.00
2019-05-11T03:00:26.550Z,36.00
2019-05-11T03:01:26.500Z,44.00
2019-05-11T03:02:26.502Z,48.00
2019-05-11T03:03:26.479Z,52.00
2019-05-11T03:04:26.478Z,60.00
2019-05-11T03:05:26.472Z,68.00
2019-05-11T03:06:26.477Z,76.00
2019-05-11T03:07:26.456Z,84.00
2019-05-11T03:08:26.437Z,96.00
2019-05-11T03:09:26.417Z,104.00
2019-05-11T03:10:26.413Z,120.00
2019-05-11T03:11:26.396Z,132.00
2019-05-11T03:12:26.415Z,148.00
2019-05-11T03:13:26.378Z,164.00
2019-05-11T03:14:26.365Z,176.00
2019-05-11T03:15:26.358Z,196.00
2019-05-11T03:16:26.349Z,216.00
2019-05-11T03:17:26.339Z,240.00
2019-05-11T03:18:26.356Z,264.00
2019-05-11T03:19:26.318Z,284.00
2019-05-11T03:20:26.297Z,308.00
2019-05-11T03:21:26.293Z,332.00
2019-05-11T03:22:26.279Z,356.00
2019-05-11T03:23:26.285Z,380.00
2019-05-11T03:24:26.259Z,408.00
2019-05-11T03:25:26.257Z,432.00
2019-05-11T03:26:26.246Z,464.00
2019-05-11T03:27:26.245Z,500.00
2019-05-11T03:28:26.237Z,540.00
2019-05-11T03:29:26.206Z,584.00
2019-05-11T03:30:26.215Z,620.00
2019-05-11T03:31:26.198Z,648.00
2019-05-11T03:32:26.169Z,680.00
2019-05-11T03:33:26.176Z,692.00
2019-05-11T03:34:26.147Z,708.00
2019-05-11T03:35:26.180Z,720.00
2019-05-11T03:36:26.153Z,732.00
2019-05-11T03:37:26.121Z,760.00
2019-05-11T03:38:26.120Z,804.00
2019-05-11T03:39:26.139Z,880.00
2019-05-11T03:40:26.084Z,972.00
2019-05-11T03:41:26.077Z,1064.00
2019-05-11T03:42:26.062Z,1136.00
2019-05-11T03:43:26.062Z,1228.00
2019-05-11T03:44:26.049Z,1332.00
2019-05-11T03:45:26.038Z,1400.00
2019-05-11T03:46:26.023Z,1388.00
2019-05-11T03:47:26.012Z,1300.00
2019-05-11T03:48:26.020Z,1180.00
2019-05-11T03:49:25.989Z,1096.00
2019-05-11T03:50:25.990Z,1040.00
2019-05-11T03:51:25.985Z,1012.00
2019-05-11T03:52:25.951Z,1008.00
2019-05-11T03:53:25.952Z,1024.00
2019-05-11T03:54:25.942Z,1068.00
2019-05-11T03:55:25.927Z,1124.00
2019-05-11T03:56:25.917Z,1184.00
2019-05-11T03:57:25.923Z,1200.00
2019-05-11T03:58:26.894Z,1192.00
2019-05-11T03:59:25.895Z,1180.00
2019-05-11T04:00:25.869Z,1164.00
2019-05-11T04:01:25.854Z,1148.00
2019-05-11T04:02:25.852Z,1132.00
2019-05-11T04:03:25.856Z,1112.00
2019-05-11T04:04:25.846Z,1108.00
2019-05-11T04:05:25.815Z,1108.00
2019-05-11T04:06:25.804Z,1116.00
2019-05-11T04:07:25.798Z,1132.00
2019-05-11T04:08:25.791Z,1148.00
2019-05-11T04:09:25.798Z,1172.00
2019-05-11T04:10:25.957Z,1204.00
2019-05-11T04:11:25.759Z,1240.00
2019-05-11T04:12:34.668Z,1280.00
2019-05-11T04:13:26.727Z,1316.00
2019-05-11T04:14:25.739Z,1356.00
2019-05-11T04:15:25.712Z,1400.00
2019-05-11T04:16:25.704Z,1444.00
2019-05-11T04:17:25.690Z,1496.00
2019-05-11T04:18:25.678Z,1560.00
2019-05-11T04:19:25.661Z,1648.00
2019-05-11T04:20:25.690Z,1772.00
2019-05-11T04:21:25.671Z,1912.00
2019-05-11T04:22:25.639Z,2076.00
2019-05-11T04:23:25.647Z,2240.00
2019-05-11T04:24:25.616Z,2416.00
2019-05-11T04:25:25.629Z,2652.00
2019-05-11T04:26:25.609Z,2932.00
2019-05-11T04:27:25.580Z,3244.00
2019-05-11T04:28:25.574Z,3556.00
2019-05-11T04:29:25.567Z,3860.00
2019-05-11T04:30:25.552Z,4124.00
2019-05-11T04:31:25.562Z,4344.00
2019-05-11T04:32:25.539Z,4548.00
2019-05-11T04:33:25.519Z,4692.00
2019-05-11T04:34:25.518Z,4736.00
2019-05-11T04:35:25.513Z,4636.00
2019-05-11T04:36:25.499Z,4460.00
2019-05-11T04:37:25.476Z,4284.00
2019-05-11T04:38:25.473Z,4060.00
2019-05-11T04:39:25.459Z,3860.00
2019-05-11T04:40:25.451Z,3720.00
2019-05-11T04:41:25.458Z,3604.00
2019-05-11T04:42:25.423Z,3548.00
2019-05-11T04:43:25.482Z,3544.00
2019-05-11T04:44:25.397Z,3580.00
2019-05-11T04:45:25.389Z,3636.00
2019-05-11T04:46:25.392Z,3696.00
2019-05-11T04:47:25.370Z,3740.00
2019-05-11T04:48:25.418Z,3808.00
2019-05-11T04:49:25.368Z,3892.00
2019-05-11T04:50:25.465Z,4008.00
2019-05-11T04:51:25.364Z,4164.00
2019-05-11T04:52:25.331Z,4368.00
2019-05-11T04:53:25.316Z,4636.00
2019-05-11T04:54:25.305Z,4952.00
2019-05-11T04:55:25.296Z,5304.00
2019-05-11T04:56:25.282Z,5648.00
2019-05-11T04:57:25.273Z,5864.00
2019-05-11T04:58:25.249Z,5996.00
2019-05-11T04:59:25.245Z,6140.00
2019-05-11T05:00:25.234Z,6372.00
2019-05-11T05:01:25.231Z,6828.00
2019-05-11T05:02:27.237Z,7140.00
2019-05-11T05:03:39.658Z,7256.00
2019-05-11T05:04:26.179Z,7252.00
2019-05-11T05:05:25.173Z,7248.00
2019-05-11T05:06:25.172Z,7464.00
2019-05-11T05:07:25.185Z,7880.00
2019-05-11T05:08:26.433Z,8232.00
2019-05-11T05:09:25.166Z,8448.00
2019-05-11T05:10:25.114Z,8524.00
2019-05-11T05:11:25.104Z,8560.00
2019-05-11T05:12:25.099Z,8784.00
2019-05-11T05:13:29.688Z,9092.00
2019-05-11T05:14:26.081Z,9416.00
2019-05-11T05:15:25.067Z,9680.00
2019-05-11T05:16:25.052Z,9940.00
2019-05-11T05:17:25.040Z,10300.00
2019-05-11T05:18:25.053Z,10596.00
2019-05-11T05:19:25.051Z,10708.00
2019-05-11T05:20:25.018Z,10804.00
2019-05-11T05:21:25.004Z,10984.00
2019-05-11T05:22:27.950Z,11132.00
2019-05-11T05:23:24.977Z,11124.00
2019-05-11T05:24:24.985Z,10956.00
2019-05-11T05:25:24.961Z,11052.00
2019-05-11T05:26:24.955Z,11456.00
2019-05-11T05:27:24.943Z,11236.00
2019-05-11T05:28:24.927Z,10400.00
2019-05-11T05:29:24.925Z,10540.00
2019-05-11T05:30:24.915Z,10868.00
2019-05-11T05:31:24.890Z,12580.00
2019-05-11T05:32:24.888Z,12212.00
2019-05-11T05:33:24.876Z,13764.00
2019-05-11T05:34:24.897Z,11380.00
2019-05-11T05:35:24.854Z,10852.00
2019-05-11T05:36:24.846Z,11208.00
2019-05-11T05:37:25.085Z,11724.00
2019-05-11T05:38:24.841Z,12292.00
2019-05-11T05:39:24.830Z,12680.00
2019-05-11T05:40:24.795Z,13080.00
2019-05-11T05:41:24.789Z,12976.00
2019-05-11T05:42:24.785Z,13364.00
2019-05-11T05:43:28.339Z,13808.00
2019-05-11T05:44:27.700Z,13928.00
2019-05-11T05:45:24.746Z,13884.00
2019-05-11T05:46:24.735Z,13936.00
2019-05-11T05:47:24.734Z,13992.00
2019-05-11T05:48:24.709Z,14116.00
2019-05-11T05:49:24.718Z,14140.00
2019-05-11T05:50:24.685Z,13968.00
2019-05-11T05:51:24.677Z,13856.00
2019-05-11T05:52:24.670Z,13904.00
2019-05-11T05:53:24.673Z,14160.00
2019-05-11T05:54:24.660Z,14516.00
2019-05-11T05:55:24.652Z,14984.00
2019-05-11T05:56:24.635Z,18912.00
2019-05-11T05:57:24.626Z,14748.00
2019-05-11T05:58:24.611Z,13760.00
2019-05-11T05:59:24.607Z,13840.00
2019-05-11T06:00:24.583Z,14348.00
2019-05-11T06:01:24.565Z,17248.00
2019-05-11T06:02:24.553Z,16668.00
2019-05-11T06:03:24.546Z,15664.00
2019-05-11T06:04:24.553Z,14400.00
2019-05-11T06:05:24.538Z,13912.00
2019-05-11T06:06:24.526Z,13792.00
2019-05-11T06:07:24.507Z,13904.00
2019-05-11T06:08:24.498Z,13396.00
2019-05-11T06:09:24.497Z,13692.00
2019-05-11T06:10:24.478Z,13708.00
2019-05-11T06:11:24.465Z,13924.00
2019-05-11T06:12:24.453Z,14316.00
2019-05-11T06:13:24.437Z,14648.00
2019-05-11T06:14:24.439Z,14988.00
2019-05-11T06:15:24.414Z,15728.00
2019-05-11T06:16:24.418Z,16964.00
2019-05-11T06:17:24.415Z,17172.00
2019-05-11T06:18:24.398Z,17388.00
2019-05-11T06:19:24.405Z,17468.00
2019-05-11T06:20:24.378Z,17508.00
2019-05-11T06:21:24.352Z,16596.00
2019-05-11T06:22:24.353Z,16552.00
2019-05-11T06:23:24.332Z,22688.00
2019-05-11T06:24:24.326Z,16412.00
2019-05-11T06:25:24.350Z,17548.00
2019-05-11T06:26:24.299Z,42368.00
2019-05-11T06:27:24.290Z,46784.00
2019-05-11T06:28:24.283Z,46048.00
2019-05-11T06:29:24.306Z,45216.00
2019-05-11T06:30:24.261Z,44160.00
2019-05-11T06:31:24.268Z,39424.00
2019-05-11T06:32:24.235Z,46400.00
2019-05-11T06:33:24.226Z,48128.00
2019-05-11T06:34:24.248Z,46432.00
2019-05-11T06:35:24.208Z,46560.00
2019-05-11T06:36:24.219Z,42496.00
2019-05-11T06:37:24.186Z,47168.00
2019-05-11T06:38:24.179Z,50144.00
2019-05-11T06:39:24.171Z,49664.00
2019-05-11T06:40:24.165Z,51520.00
2019-05-11T06:41:24.239Z,52128.00
2019-05-11T06:42:24.135Z,52096.00
2019-05-11T06:43:24.124Z,53184.00
2019-05-11T06:44:24.106Z,52640.00
2019-05-11T06:45:24.104Z,51680.00
2019-05-11T06:46:24.087Z,50400.00
2019-05-11T06:47:24.093Z,51520.00
2019-05-11T06:48:24.070Z,53824.00
2019-05-11T06:49:24.085Z,55328.00
2019-05-11T06:50:24.056Z,57024.00
2019-05-11T06:51:24.057Z,57376.00
2019-05-11T06:52:24.044Z,56000.00
2019-05-11T06:53:24.015Z,56512.00
2019-05-11T06:54:23.995Z,56544.00
2019-05-11T06:55:23.988Z,56672.00
2019-05-11T06:56:23.990Z,55840.00
2019-05-11T06:57:23.995Z,55424.00
2019-05-11T06:58:23.955Z,57056.00
2019-05-11T06:59:23.946Z,57024.00
2019-05-11T07:00:23.950Z,55552.00
2019-05-11T07:01:23.932Z,52448.00
2019-05-11T07:02:23.923Z,52192.00
2019-05-11T07:03:23.951Z,52288.00
2019-05-11T07:04:23.888Z,54880.00
2019-05-11T07:05:23.877Z,55712.00
2019-05-11T07:06:28.076Z,55840.00
2019-05-11T07:07:24.873Z,53856.00
2019-05-11T07:08:23.868Z,53056.00
2019-05-11T07:09:23.841Z,52448.00
2019-05-11T07:10:23.849Z,53344.00
2019-05-11T07:11:23.822Z,56800.00
2019-05-11T07:12:27.336Z,56608.00
2019-05-11T07:13:23.813Z,55168.00
2019-05-11T07:14:23.813Z,56352.00
2019-05-11T07:15:23.781Z,58080.00
2019-05-11T07:16:23.764Z,58368.00
2019-05-11T07:17:23.766Z,59936.00
2019-05-11T07:18:23.755Z,63200.00
2019-05-11T07:19:23.733Z,65792.00
2019-05-11T07:20:23.736Z,66624.00
2019-05-11T07:21:23.721Z,66496.00
2019-05-11T07:22:23.703Z,66784.00
2019-05-11T07:23:23.707Z,67616.00
2019-05-11T07:24:23.673Z,67296.00
2019-05-11T07:25:23.684Z,67712.00
2019-05-11T07:26:23.654Z,69472.00
2019-05-11T07:27:23.652Z,68704.00
2019-05-11T07:28:23.665Z,72480.00
2019-05-11T07:29:23.631Z,72032.00
2019-05-11T07:30:23.619Z,61568.00
2019-05-11T07:31:23.606Z,64320.00
2019-05-11T07:32:26.128Z,73472.00
2019-05-11T07:33:23.640Z,75648.00
2019-05-11T07:34:23.573Z,77184.00
2019-05-11T07:35:23.563Z,76512.00
2019-05-11T07:36:23.549Z,74016.00
2019-05-11T07:37:24.416Z,79392.00
2019-05-11T07:38:23.534Z,80320.00
2019-05-11T07:39:23.534Z,70720.00
2019-05-11T07:40:23.511Z,66464.00
2019-05-11T07:41:23.499Z,84128.00
2019-05-11T07:42:23.492Z,78560.00
2019-05-11T07:43:23.479Z,79968.00
2019-05-11T07:44:35.053Z,77408.00
2019-05-11T07:45:24.476Z,51040.00
2019-05-11T07:46:23.463Z,55264.00
2019-05-11T07:47:23.443Z,52544.00
2019-05-11T07:48:23.416Z,64032.00
2019-05-11T07:49:23.686Z,86144.00
2019-05-11T07:50:23.423Z,82432.00
2019-05-11T07:51:23.385Z,51712.00
2019-05-11T07:52:23.378Z,54240.00
2019-05-11T07:53:23.368Z,76608.00
2019-05-11T07:54:23.366Z,85088.00
2019-05-11T07:55:23.367Z,88928.00
2019-05-11T07:56:23.335Z,91040.00
2019-05-11T07:57:23.326Z,76960.00
2019-05-11T07:58:23.313Z,82080.00
2019-05-11T07:59:23.305Z,90368.00
2019-05-11T08:00:23.326Z,74272.00
2019-05-11T08:01:23.296Z,77824.00
2019-05-11T08:02:23.274Z,66368.00
2019-05-11T08:03:23.275Z,62528.00
2019-05-11T08:04:23.256Z,65568.00
2019-05-11T08:05:23.254Z,70208.00
2019-05-11T08:06:23.253Z,68576.00
2019-05-11T08:07:23.231Z,86560.00
2019-05-11T08:08:25.227Z,78496.00
2019-05-11T08:09:23.200Z,89824.00
2019-05-11T08:10:23.219Z,87424.00
2019-05-11T08:11:23.198Z,87040.00
2019-05-11T08:12:23.190Z,89824.00
2019-05-11T08:13:23.166Z,89056.00
2019-05-11T08:14:23.154Z,79744.00
2019-05-11T08:15:23.145Z,85856.00
2019-05-11T08:16:23.148Z,88064.00
2019-05-11T08:17:23.118Z,69984.00
2019-05-11T08:18:23.115Z,92288.00
2019-05-11T08:19:23.105Z,93376.00
2019-05-11T08:20:23.085Z,69440.00
2019-05-11T08:21:23.071Z,78560.00
2019-05-11T08:22:23.166Z,96416.00
2019-05-11T08:23:23.077Z,100640.00
2019-05-11T08:24:23.058Z,82304.00
2019-05-11T08:25:23.040Z,85792.00
2019-05-11T08:26:23.035Z,81280.00
2019-05-11T08:27:23.049Z,100544.00
2019-05-11T08:28:23.007Z,102784.00
2019-05-11T08:29:22.992Z,88192.00
2019-05-11T08:30:22.981Z,102496.00
2019-05-11T08:31:22.968Z,83872.00
2019-05-11T08:32:22.966Z,81728.00
2019-05-11T08:33:22.968Z,81888.00
2019-05-11T08:34:22.946Z,90016.00
2019-05-11T08:35:22.931Z,87968.00
2019-05-11T08:36:22.927Z,111648.00
2019-05-11T08:37:22.912Z,105248.00
2019-05-11T08:38:22.928Z,74464.00
2019-05-11T08:39:22.897Z,74688.00
2019-05-11T08:40:22.887Z,71968.00
2019-05-11T08:41:22.866Z,99392.00
2019-05-11T08:42:22.861Z,100192.00
2019-05-11T08:43:22.887Z,92416.00
2019-05-11T08:44:22.845Z,93280.00
2019-05-11T08:45:24.688Z,57856.00
2019-05-11T08:46:22.823Z,59392.00
2019-05-11T08:47:22.814Z,50176.00
2019-05-11T08:48:22.800Z,43808.00
2019-05-11T08:49:22.796Z,65056.00
2019-05-11T08:50:22.780Z,43616.00
2019-05-11T08:51:22.772Z,39392.00
2019-05-11T08:52:22.757Z,39040.00
2019-05-11T08:53:22.742Z,43136.00
2019-05-11T08:54:22.747Z,51872.00
2019-05-11T08:55:22.729Z,55808.00
2019-05-11T08:56:22.720Z,43744.00
2019-05-11T08:57:22.708Z,43296.00
2019-05-11T08:58:22.717Z,41248.00
2019-05-11T08:59:22.692Z,50464.00
2019-05-11T09:00:22.674Z,57824.00
2019-05-11T09:01:22.662Z,54272.00
2019-05-11T09:02:22.649Z,43552.00
2019-05-11T09:03:22.636Z,48640.00
2019-05-11T09:04:22.650Z,50624.00
2019-05-11T09:05:22.625Z,51136.00
2019-05-11T09:06:22.605Z,49248.00
2019-05-11T09:07:22.602Z,56896.00
2019-05-11T09:08:22.599Z,45856.00
2019-05-11T09:09:22.599Z,45248.00
2019-05-11T09:10:22.575Z,48640.00
2019-05-11T09:11:22.564Z,47296.00
2019-05-11T09:12:22.542Z,46944.00
2019-05-11T09:13:22.531Z,37920.00
2019-05-11T09:14:22.579Z,47104.00
2019-05-11T09:15:35.512Z,37664.00
2019-05-11T09:16:23.529Z,35968.00
2019-05-11T09:17:22.516Z,36512.00
2019-05-11T09:18:22.500Z,44672.00
2019-05-11T09:19:22.519Z,49344.00
2019-05-11T09:20:22.457Z,37472.00
2019-05-11T09:21:22.458Z,45664.00
2019-05-11T09:22:22.446Z,51712.00
2019-05-11T09:23:33.418Z,48768.00
2019-05-11T09:24:23.439Z,38912.00
2019-05-11T09:25:22.404Z,39552.00
2019-05-11T09:26:22.406Z,74848.00
2019-05-11T09:27:22.394Z,76032.00
2019-05-11T09:28:22.376Z,70048.00
2019-05-11T09:29:22.370Z,42464.00
2019-05-11T09:30:22.388Z,39264.00
2019-05-11T09:31:22.348Z,35072.00
2019-05-11T09:32:22.347Z,30336.00
2019-05-11T09:33:22.325Z,28192.00
2019-05-11T09:34:22.354Z,26496.00
2019-05-11T09:35:22.319Z,24864.00
2019-05-11T09:36:22.315Z,22880.00
2019-05-11T09:37:22.286Z,21152.00
2019-05-11T09:38:22.265Z,20288.00
2019-05-11T09:39:22.256Z,20416.00
2019-05-11T09:40:22.252Z,21152.00
2019-05-11T09:41:22.251Z,22496.00
2019-05-11T09:42:22.232Z,29728.00
2019-05-11T09:43:22.223Z,25120.00
2019-05-11T09:44:22.199Z,24000.00
2019-05-11T09:45:22.189Z,23264.00
2019-05-11T09:46:22.189Z,23296.00
2019-05-11T09:47:22.168Z,23712.00
2019-05-11T09:48:22.167Z,24512.00
2019-05-11T09:49:22.152Z,25504.00
2019-05-11T09:50:22.149Z,27776.00
2019-05-11T09:51:22.143Z,29856.00
2019-05-11T09:52:22.117Z,31200.00
2019-05-11T09:53:22.107Z,31072.00
2019-05-11T09:54:22.105Z,28096.00
2019-05-11T09:55:22.101Z,27456.00
2019-05-11T09:56:22.099Z,27904.00
2019-05-11T09:57:22.062Z,27872.00
2019-05-11T09:58:22.048Z,27200.00
2019-05-11T09:59:22.038Z,28512.00
2019-05-11T10:00:22.037Z,28128.00
2019-05-11T10:01:22.026Z,26752.00
2019-05-11T10:02:22.039Z,28320.00
2019-05-11T10:03:22.006Z,28480.00
2019-05-11T10:04:21.994Z,28384.00
2019-05-11T10:05:21.982Z,28512.00
2019-05-11T10:06:21.970Z,29152.00
2019-05-11T10:07:21.977Z,29504.00
2019-05-11T10:08:21.953Z,29120.00
2019-05-11T10:09:21.941Z,28224.00
2019-05-11T10:10:21.925Z,27616.00
2019-05-11T10:11:21.913Z,27584.00
2019-05-11T10:12:21.946Z,26944.00
2019-05-11T10:13:21.895Z,27648.00
2019-05-11T10:14:21.885Z,26336.00
2019-05-11T10:15:21.881Z,26240.00
2019-05-11T10:16:21.855Z,27136.00
2019-05-11T10:17:21.862Z,27744.00
2019-05-11T10:18:24.200Z,27872.00
2019-05-11T10:19:21.830Z,25856.00
2019-05-11T10:20:21.821Z,24384.00
2019-05-11T10:21:21.814Z,23424.00
2019-05-11T10:22:21.811Z,23008.00
2019-05-11T10:23:21.792Z,22912.00
2019-05-11T10:24:21.771Z,22976.00
2019-05-11T10:25:21.766Z,23072.00
2019-05-11T10:26:21.754Z,23264.00
2019-05-11T10:27:21.766Z,23456.00
2019-05-11T10:28:21.731Z,23680.00
2019-05-11T10:29:21.725Z,24000.00
2019-05-11T10:30:21.707Z,24416.00
2019-05-11T10:31:21.694Z,24448.00
2019-05-11T10:32:21.695Z,24256.00
2019-05-11T10:33:21.691Z,23776.00
2019-05-11T10:34:21.669Z,23520.00
2019-05-11T10:35:21.658Z,23296.00
2019-05-11T10:36:21.650Z,23040.00
2019-05-11T10:37:21.630Z,22944.00
2019-05-11T10:38:21.641Z,22976.00
2019-05-11T10:39:21.609Z,23008.00
2019-05-11T10:40:21.609Z,23104.00
2019-05-11T10:41:21.602Z,23360.00
2019-05-11T10:42:21.574Z,23872.00
2019-05-11T10:43:21.582Z,24544.00
2019-05-11T10:44:21.571Z,25056.00
2019-05-11T10:45:21.553Z,25312.00
2019-05-11T10:46:23.448Z,26208.00
2019-05-11T10:47:21.529Z,27136.00
2019-05-11T10:48:21.512Z,27648.00
2019-05-11T10:49:21.523Z,27648.00
2019-05-11T10:50:21.492Z,27648.00
2019-05-11T10:51:21.484Z,27360.00
2019-05-11T10:52:21.476Z,27232.00
2019-05-11T10:53:21.464Z,27136.00
2019-05-11T10:54:21.453Z,27104.00
2019-05-11T10:55:21.463Z,27360.00
2019-05-11T10:56:21.435Z,27104.00
2019-05-11T10:57:21.424Z,27136.00
2019-05-11T10:58:21.409Z,26880.00
2019-05-11T10:59:21.400Z,26272.00
2019-05-11T11:00:21.395Z,26016.00
2019-05-11T11:01:21.377Z,26176.00
2019-05-11T11:02:21.368Z,26528.00
2019-05-11T11:03:21.354Z,27168.00
2019-05-11T11:04:21.346Z,27552.00
2019-05-11T11:05:21.363Z,27744.00
2019-05-11T11:06:21.327Z,28192.00
2019-05-11T11:07:21.334Z,28832.00
2019-05-11T11:08:21.298Z,29280.00
2019-05-11T11:09:21.284Z,29760.00
2019-05-11T11:10:21.278Z,30144.00
2019-05-11T11:11:21.279Z,30080.00
2019-05-11T11:12:21.259Z,30400.00
2019-05-11T11:13:21.257Z,30592.00
2019-05-11T11:14:21.259Z,31168.00
2019-05-11T11:15:21.240Z,30240.00
2019-05-11T11:16:35.750Z,29696.00
2019-05-11T11:17:22.236Z,28480.00
2019-05-11T11:18:22.090Z,27744.00
2019-05-11T11:19:21.196Z,26656.00
2019-05-11T11:20:21.168Z,25952.00
2019-05-11T11:21:23.009Z,24320.00
2019-05-11T11:22:35.949Z,23168.00
2019-05-11T11:23:22.133Z,22368.00
2019-05-11T11:24:21.135Z,21344.00
2019-05-11T11:25:21.121Z,20704.00
2019-05-11T11:26:21.127Z,20416.00
2019-05-11T11:27:21.107Z,20128.00
2019-05-11T11:28:21.082Z,19648.00
2019-05-11T11:29:21.074Z,18976.00
2019-05-11T11:30:21.075Z,18240.00
2019-05-11T11:31:21.068Z,17664.00
2019-05-11T11:32:21.041Z,17064.00
2019-05-11T11:33:21.026Z,16892.00
2019-05-11T11:34:21.017Z,16952.00
2019-05-11T11:35:21.007Z,17136.00
2019-05-11T11:36:21.016Z,17408.00
2019-05-11T11:37:21.019Z,17568.00
2019-05-11T11:38:21.046Z,17696.00
2019-05-11T11:39:20.969Z,17792.00
2019-05-11T11:40:20.955Z,17824.00
2019-05-11T11:41:20.960Z,17792.00
2019-05-11T11:42:20.937Z,17664.00
2019-05-11T11:43:20.919Z,16976.00
2019-05-11T11:44:20.931Z,16444.00
2019-05-11T11:45:20.909Z,16152.00
2019-05-11T11:46:20.968Z,16200.00
2019-05-11T11:47:21.814Z,16452.00
2019-05-11T11:48:20.877Z,16736.00
2019-05-11T11:49:20.865Z,16860.00
2019-05-11T11:50:20.874Z,16824.00
2019-05-11T11:51:20.859Z,16716.00
2019-05-11T11:52:20.836Z,16356.00
2019-05-11T11:53:20.835Z,15920.00
2019-05-11T11:54:20.799Z,15536.00
2019-05-11T11:55:20.799Z,15228.00
2019-05-11T11:56:20.792Z,15008.00
2019-05-11T11:57:21.140Z,14844.00
2019-05-11T11:58:29.079Z,14728.00
2019-05-11T11:59:20.752Z,14612.00
2019-05-11T12:00:20.754Z,14504.00
2019-05-11T12:01:20.727Z,14408.00
2019-05-11T12:02:20.735Z,14340.00
2019-05-11T12:03:20.710Z,14272.00
2019-05-11T12:04:20.698Z,14208.00
2019-05-11T12:05:20.684Z,14080.00
2019-05-11T12:06:20.703Z,13932.00
2019-05-11T12:07:20.672Z,13768.00
2019-05-11T12:08:20.655Z,13616.00
2019-05-11T12:09:20.656Z,13488.00
2019-05-11T12:10:20.651Z,13412.00